Time;durP1;ratioP1;P1;durP2;ratioP2;P2;SDS_P1;SDS_P2;PMS_P1;PMS_P2;Temp;Humidity;BMP_temperature;BMP_pressure;BME280_temperature;BME280_humidity;BME280_pressure;Samples;Min_cycle;Max_cycle;Signal;HPM_P1;HPM_P2
2022/07/29 00:00:14;;;;;;;6.28;2.15;;;15.10;99.90;;;;;;5075084;28;20044;-62
2022/07/29 00:02:40;;;;;;;6.05;2.00;;;15.10;99.90;;;;;;5075086;28;20036;-62
2022/07/29 00:05:08;;;;;;;8.70;2.10;;;15.10;99.90;;;;;;5074963;28;20174;-62
2022/07/29 00:07:33;;;;;;;7.10;2.20;;;15.20;99.90;;;;;;5075027;28;20497;-62
2022/07/29 00:09:59;;;;;;;6.65;2.10;;;15.20;99.90;;;;;;5075006;28;20044;-62
2022/07/29 00:12:25;;;;;;;6.88;1.90;;;15.20;99.90;;;;;;5073849;28;20039;-63
2022/07/29 00:14:51;;;;;;;6.57;1.98;;;15.10;99.90;;;;;;5074960;28;20433;-62
2022/07/29 00:17:17;;;;;;;7.47;2.22;;;15.20;99.90;;;;;;5074882;28;20047;-62
2022/07/29 00:19:43;;;;;;;6.25;2.10;;;15.10;99.90;;;;;;5069572;28;20389;-63
2022/07/29 00:22:08;;;;;;;8.10;1.92;;;15.10;99.90;;;;;;5054681;28;20064;-63
2022/07/29 00:24:34;;;;;;;7.75;2.42;;;15.10;99.90;;;;;;5054802;28;20141;-62
2022/07/29 00:27:00;;;;;;;5.68;2.00;;;15.10;99.90;;;;;;5054842;28;20122;-63
2022/07/29 00:29:25;;;;;;;5.60;2.20;;;15.10;99.90;;;;;;5054687;28;20064;-63
2022/07/29 00:31:51;;;;;;;7.10;2.03;;;15.10;99.90;;;;;;5054693;28;20109;-62
2022/07/29 00:37:01;;;;;;;5.63;1.95;;;15.20;99.90;;;;;;5054596;28;20503;-62
2022/07/29 00:39:26;;;;;;;7.85;2.55;;;15.20;99.90;;;;;;5073530;28;20068;-62
2022/07/29 00:41:52;;;;;;;7.03;2.40;;;15.20;99.90;;;;;;5073078;28;20512;-62
2022/07/29 00:44:18;;;;;;;6.13;2.28;;;15.20;99.90;;;;;;5074466;28;20543;-63
2022/07/29 00:46:43;;;;;;;7.47;2.50;;;15.20;99.90;;;;;;5073097;28;20032;-63
2022/07/29 00:49:09;;;;;;;6.82;1.95;;;15.20;99.90;;;;;;5074085;28;20040;-63
2022/07/29 00:51:38;;;;;;;7.55;2.25;;;15.20;99.90;;;;;;5074331;28;20037;-63
2022/07/29 00:54:05;;;;;;;7.50;2.33;;;15.20;99.90;;;;;;5074115;28;20036;-62
2022/07/29 00:56:31;;;;;;;5.95;2.17;;;15.30;99.90;;;;;;5074112;28;20049;-63
2022/07/29 00:58:58;;;;;;;6.65;2.17;;;15.20;99.90;;;;;;5072700;28;20059;-63
2022/07/29 01:01:23;;;;;;;7.03;2.30;;;15.20;99.90;;;;;;5073914;28;20116;-62
2022/07/29 01:03:49;;;;;;;6.70;2.40;;;15.20;99.90;;;;;;5072635;28;20116;-62
2022/07/29 01:06:17;;;;;;;6.85;2.63;;;15.20;99.90;;;;;;5074113;28;20040;-62
2022/07/29 01:08:45;;;;;;;6.18;2.72;;;15.20;99.90;;;;;;5073695;28;20037;-63
2022/07/29 01:11:12;;;;;;;7.93;2.72;;;15.30;99.90;;;;;;5073844;28;20443;-62
2022/07/29 01:13:38;;;;;;;7.72;2.30;;;15.20;99.90;;;;;;5073571;28;20193;-63
2022/07/29 01:16:10;;;;;;;5.78;2.50;;;15.10;99.90;;;;;;5073547;28;20052;-63
2022/07/29 01:18:44;;;;;;;7.45;2.30;;;15.10;99.90;;;;;;5073410;28;20041;-63
2022/07/29 01:21:42;;;;;;;8.25;2.58;;;15.10;99.90;;;;;;5057748;28;20044;-63
2022/07/29 01:24:31;;;;;;;9.77;2.75;;;15.10;99.90;;;;;;5053262;28;20106;-62
2022/07/29 01:27:10;;;;;;;6.43;2.45;;;15.20;99.90;;;;;;5053256;28;20123;-62
2022/07/29 01:29:43;;;;;;;6.65;2.28;;;15.20;99.90;;;;;;5053489;28;20379;-62
2022/07/29 01:32:13;;;;;;;5.15;2.50;;;15.20;99.90;;;;;;5068339;28;20041;-62
2022/07/29 01:34:52;;;;;;;6.07;2.35;;;15.20;99.90;;;;;;5053063;28;20084;-62
2022/07/29 01:37:26;;;;;;;6.50;2.40;;;15.20;99.90;;;;;;5054076;28;20103;-62
2022/07/29 01:39:56;;;;;;;8.02;2.65;;;15.20;99.90;;;;;;5073321;28;20393;-62
2022/07/29 01:42:36;;;;;;;10.73;3.53;;;15.20;99.90;;;;;;5073155;28;20037;-62
2022/07/29 01:45:09;;;;;;;6.45;2.50;;;15.20;99.90;;;;;;5073005;28;20476;-62
2022/07/29 01:47:43;;;;;;;7.35;2.45;;;15.20;99.90;;;;;;5072962;28;20051;-61
2022/07/29 01:50:12;;;;;;;7.60;2.45;;;15.20;99.90;;;;;;5073094;28;20420;-63
2022/07/29 01:52:53;;;;;;;6.38;2.50;;;15.20;99.90;;;;;;5072756;28;20048;-62
2022/07/29 01:55:22;;;;;;;6.20;2.40;;;15.20;99.90;;;;;;5072696;28;20063;-62
2022/07/29 01:57:48;;;;;;;8.50;2.40;;;15.10;99.90;;;;;;5072299;28;20286;-62
2022/07/29 02:00:15;;;;;;;6.47;2.90;;;15.10;99.90;;;;;;5071341;28;20068;-62
2022/07/29 02:02:44;;;;;;;8.82;2.53;;;15.10;99.90;;;;;;5072786;28;20037;-62
2022/07/29 02:05:13;;;;;;;7.65;2.70;;;15.10;99.90;;;;;;5072498;28;20051;-62
2022/07/29 02:07:41;;;;;;;6.35;2.70;;;15.20;99.90;;;;;;5071124;28;20047;-62
2022/07/29 02:10:09;;;;;;;6.20;2.40;;;15.10;99.90;;;;;;5072433;28;20044;-63
2022/07/29 02:12:36;;;;;;;6.07;2.63;;;15.20;99.90;;;;;;5072424;28;20043;-62
2022/07/29 02:15:04;;;;;;;5.65;2.35;;;15.00;99.90;;;;;;5072614;28;20051;-62
2022/07/29 02:17:38;;;;;;;8.63;3.00;;;15.10;99.90;;;;;;5072347;28;20044;-62
2022/07/29 02:20:05;;;;;;;6.90;2.50;;;15.10;99.90;;;;;;5065692;28;20394;-62
2022/07/29 02:22:34;;;;;;;7.28;2.38;;;15.20;99.90;;;;;;5051440;28;20043;-62
2022/07/29 02:25:01;;;;;;;7.45;1.98;;;15.10;99.90;;;;;;5052681;28;20052;-63
2022/07/29 02:27:28;;;;;;;10.20;2.80;;;15.10;99.90;;;;;;5052744;28;20047;-63
2022/07/29 02:29:57;;;;;;;6.03;2.38;;;15.10;99.90;;;;;;5052213;28;20048;-63
2022/07/29 02:32:25;;;;;;;9.38;2.70;;;15.20;99.90;;;;;;5052234;28;20051;-63
2022/07/29 02:34:52;;;;;;;8.07;2.15;;;15.10;99.90;;;;;;5052070;28;20131;-59
2022/07/29 02:37:19;;;;;;;5.90;2.45;;;15.20;99.90;;;;;;5053182;28;20048;-63
2022/07/29 02:39:46;;;;;;;5.70;2.20;;;15.10;99.90;;;;;;5072089;28;20082;-62
2022/07/29 02:42:15;;;;;;;7.47;2.65;;;15.10;99.90;;;;;;5071935;28;20040;-63
2022/07/29 02:44:41;;;;;;;7.70;2.53;;;15.10;99.90;;;;;;5072112;28;20036;-62
2022/07/29 02:47:19;;;;;;;4.97;1.95;;;15.10;99.90;;;;;;5072101;28;20052;-63
2022/07/29 02:50:02;;;;;;;7.80;2.67;;;15.10;99.90;;;;;;5072016;28;20455;-63
2022/07/29 02:52:39;;;;;;;7.68;2.17;;;15.10;99.90;;;;;;5071812;28;20032;-62
2022/07/29 02:55:22;;;;;;;6.43;2.50;;;15.10;99.90;;;;;;5071967;28;20068;-63
2022/07/29 02:58:01;;;;;;;7.10;2.58;;;15.10;99.90;;;;;;5071752;28;20171;-62
2022/07/29 03:00:29;;;;;;;7.78;2.72;;;15.10;99.90;;;;;;5071864;28;20052;-62
2022/07/29 03:03:03;;;;;;;7.47;2.38;;;15.10;99.90;;;;;;5072169;28;20121;-62
2022/07/29 03:05:30;;;;;;;7.35;2.10;;;15.10;99.90;;;;;;5071824;28;20400;-63
2022/07/29 03:08:00;;;;;;;6.63;2.45;;;15.10;99.90;;;;;;5071866;28;20052;-62
2022/07/29 03:10:27;;;;;;;6.55;2.50;;;15.10;99.90;;;;;;5073837;28;20119;-63
2022/07/29 03:12:57;;;;;;;7.55;2.20;;;15.00;99.90;;;;;;5076029;28;20115;-62
2022/07/29 03:15:23;;;;;;;4.55;2.00;;;15.00;99.90;;;;;;5075970;28;20151;-62
2022/07/29 03:17:50;;;;;;;5.20;2.13;;;15.00;99.90;;;;;;5075818;28;20102;-61
2022/07/29 03:20:16;;;;;;;7.18;2.22;;;15.10;99.90;;;;;;5066413;28;20056;-62
2022/07/29 03:22:43;;;;;;;7.90;2.35;;;15.00;99.90;;;;;;5055963;28;20040;-63
2022/07/29 03:25:17;;;;;;;7.57;2.13;;;14.90;99.90;;;;;;5055788;28;20045;-61
2022/07/29 03:27:43;;;;;;;6.13;2.15;;;15.00;99.90;;;;;;5055766;28;20048;-62
2022/07/29 03:30:10;;;;;;;7.53;2.00;;;15.00;99.90;;;;;;5055898;28;20041;-62
2022/07/29 03:32:36;;;;;;;6.32;2.13;;;15.00;99.90;;;;;;5088155;28;20056;-62
2022/07/29 03:35:04;;;;;;;7.57;2.42;;;15.00;99.90;;;;;;5055505;28;20053;-62
2022/07/29 03:37:30;;;;;;;6.70;2.60;;;15.00;99.90;;;;;;5058197;28;20049;-62
2022/07/29 03:39:57;;;;;;;6.13;2.40;;;15.00;99.90;;;;;;5075532;28;20037;-62
2022/07/29 03:42:27;;;;;;;7.50;2.20;;;15.00;99.90;;;;;;5075642;28;20036;-62
2022/07/29 03:44:55;;;;;;;6.45;2.17;;;15.00;99.90;;;;;;5075658;28;20044;-62
2022/07/29 03:47:25;;;;;;;6.05;2.20;;;14.90;99.90;;;;;;5075277;28;20102;-63
2022/07/29 03:49:56;;;;;;;6.28;2.20;;;14.90;99.90;;;;;;5075443;28;20044;-62
2022/07/29 03:52:22;;;;;;;7.18;2.00;;;14.90;99.90;;;;;;5075216;28;20048;-62
2022/07/29 03:54:48;;;;;;;5.80;2.30;;;15.00;99.90;;;;;;5075371;28;20040;-62
2022/07/29 03:57:18;;;;;;;5.13;1.90;;;14.90;99.90;;;;;;5075277;28;20421;-62
2022/07/29 03:59:44;;;;;;;6.50;2.05;;;15.00;99.90;;;;;;5075225;28;20032;-62
2022/07/29 04:02:12;;;;;;;7.60;2.20;;;15.00;99.90;;;;;;5075127;28;20044;-62
2022/07/29 04:04:38;;;;;;;12.82;2.38;;;14.90;99.90;;;;;;5075197;28;20105;-62
2022/07/29 04:07:05;;;;;;;6.70;2.05;;;15.00;99.90;;;;;;5075048;28;20032;-63
2022/07/29 04:09:31;;;;;;;5.63;2.15;;;15.00;99.90;;;;;;5075018;28;20041;-63
2022/07/29 04:11:56;;;;;;;6.13;1.90;;;15.00;99.90;;;;;;5075099;28;20051;-62
2022/07/29 04:14:22;;;;;;;7.88;2.00;;;15.00;99.90;;;;;;5075106;28;20079;-63
2022/07/29 04:16:48;;;;;;;5.28;2.05;;;15.00;99.90;;;;;;5074669;28;20070;-62
2022/07/29 04:19:13;;;;;;;7.10;1.95;;;15.00;99.90;;;;;;5073553;28;20048;-62
2022/07/29 04:21:40;;;;;;;8.50;2.58;;;15.10;99.90;;;;;;5033360;28;20524;-62
2022/07/29 04:24:06;;;;;;;8.23;2.30;;;15.10;99.90;;;;;;5034814;28;20072;-63
2022/07/29 04:26:32;;;;;;;6.85;2.00;;;15.10;99.90;;;;;;5034934;28;20100;-62
2022/07/29 04:28:58;;;;;;;6.43;1.95;;;15.10;99.90;;;;;;5034878;28;20045;-63
2022/07/29 04:31:24;;;;;;;7.60;2.20;;;15.10;99.90;;;;;;5034706;28;20050;-62
2022/07/29 04:33:50;;;;;;;5.80;1.80;;;15.10;99.90;;;;;;5034563;28;20065;-62
2022/07/29 04:36:15;;;;;;;6.72;2.15;;;15.00;99.90;;;;;;5034531;28;20475;-62
2022/07/29 04:38:42;;;;;;;8.13;2.30;;;15.10;99.90;;;;;;5060413;28;20072;-63
2022/07/29 04:41:08;;;;;;;7.72;2.17;;;15.10;99.90;;;;;;5074487;28;20645;-62
2022/07/29 04:43:35;;;;;;;7.13;2.17;;;15.20;99.90;;;;;;5074559;28;20076;-62
2022/07/29 04:46:01;;;;;;;5.65;1.80;;;15.20;99.90;;;;;;5074326;28;20036;-62
2022/07/29 04:48:27;;;;;;;7.82;1.90;;;15.20;99.90;;;;;;5074197;28;20048;-62
2022/07/29 04:50:53;;;;;;;6.38;1.90;;;15.20;99.90;;;;;;5074045;28;20047;-62
2022/07/29 04:53:18;;;;;;;5.78;2.17;;;15.20;99.90;;;;;;5074135;28;20071;-62
2022/07/29 04:55:45;;;;;;;7.95;1.70;;;15.20;99.90;;;;;;5074394;28;20477;-62
2022/07/29 04:58:11;;;;;;;6.93;2.05;;;15.20;99.90;;;;;;5074087;28;20047;-62
2022/07/29 05:00:36;;;;;;;5.15;1.63;;;15.30;99.90;;;;;;5074091;28;20040;-63
2022/07/29 05:03:03;;;;;;;6.32;1.70;;;15.30;99.90;;;;;;5074010;28;20396;-63
2022/07/29 05:05:29;;;;;;;6.63;1.88;;;15.30;99.90;;;;;;5073841;28;20044;-63
2022/07/29 05:07:55;;;;;;;6.22;1.88;;;15.30;99.90;;;;;;5073994;28;20049;-62
2022/07/29 05:10:20;;;;;;;6.95;2.00;;;15.40;99.90;;;;;;5073724;28;20036;-63
2022/07/29 05:12:46;;;;;;;7.05;1.63;;;15.40;99.90;;;;;;5073974;28;20040;-62
2022/07/29 05:15:13;;;;;;;6.40;1.80;;;15.40;99.90;;;;;;5073660;28;20036;-62
2022/07/29 05:17:38;;;;;;;8.02;1.90;;;15.40;99.90;;;;;;5073581;28;20048;-63
2022/07/29 05:20:06;;;;;;;6.50;2.20;;;15.50;99.90;;;;;;5066586;28;20106;-62
2022/07/29 05:22:31;;;;;;;5.03;1.50;;;15.60;99.90;;;;;;5053475;28;20051;-63
2022/07/29 05:24:57;;;;;;;6.65;1.73;;;15.60;99.90;;;;;;5053331;28;20033;-62
2022/07/29 05:27:23;;;;;;;7.65;1.98;;;15.60;99.90;;;;;;5053371;28;20044;-62
2022/07/29 05:29:48;;;;;;;9.25;1.85;;;15.60;99.90;;;;;;5053413;28;20041;-62
2022/07/29 05:32:14;;;;;;;7.47;2.03;;;15.70;99.90;;;;;;5052766;28;20163;-61
2022/07/29 05:34:40;;;;;;;4.68;1.70;;;15.70;99.90;;;;;;5053186;28;20102;-63
2022/07/29 05:37:06;;;;;;;6.30;1.58;;;15.70;99.90;;;;;;5053583;28;20115;-62
2022/07/29 05:39:32;;;;;;;6.18;1.88;;;15.80;99.90;;;;;;5072957;28;20119;-62
2022/07/29 05:41:57;;;;;;;7.43;1.70;;;15.80;99.90;;;;;;5072355;28;20040;-62
2022/07/29 05:44:23;;;;;;;6.20;1.80;;;15.80;99.90;;;;;;5072381;28;20090;-62
2022/07/29 05:46:49;;;;;;;6.85;1.80;;;15.90;99.90;;;;;;5072439;28;20591;-63
2022/07/29 05:49:15;;;;;;;6.10;1.80;;;15.90;99.90;;;;;;5072181;28;20040;-63
2022/07/29 05:51:40;;;;;;;6.68;1.40;;;16.00;99.90;;;;;;5072030;28;20113;-62
2022/07/29 05:54:06;;;;;;;6.47;1.58;;;16.00;99.90;;;;;;5071937;28;20047;-62
2022/07/29 05:56:31;;;;;;;6.22;1.88;;;16.00;99.90;;;;;;5071929;28;20051;-63
2022/07/29 05:58:57;;;;;;;7.63;2.00;;;16.00;99.90;;;;;;5071980;28;20044;-62
2022/07/29 06:01:23;;;;;;;7.75;2.08;;;16.10;99.90;;;;;;5071820;28;20046;-62
2022/07/29 06:03:48;;;;;;;6.60;1.90;;;16.00;99.90;;;;;;5071334;28;20083;-62
2022/07/29 06:06:14;;;;;;;4.95;1.65;;;16.00;99.90;;;;;;5072030;28;20081;-62
2022/07/29 06:08:40;;;;;;;9.35;1.67;;;16.10;99.90;;;;;;5072013;28;20055;-62
2022/07/29 06:11:08;;;;;;;8.15;2.30;;;16.00;99.90;;;;;;5071919;28;20041;-62
2022/07/29 06:13:34;;;;;;;5.72;1.70;;;16.20;99.90;;;;;;5072077;28;20032;-61
2022/07/29 06:15:59;;;;;;;8.57;1.80;;;16.20;99.90;;;;;;5070485;28;20549;-63
2022/07/29 06:18:25;;;;;;;4.15;1.77;;;16.30;99.90;;;;;;5071804;28;20040;-63
2022/07/29 06:20:51;;;;;;;6.20;2.10;;;16.40;99.90;;;;;;5040197;28;20072;-63
2022/07/29 06:23:18;;;;;;;5.20;1.63;;;16.50;99.90;;;;;;5050569;28;20067;-63
2022/07/29 06:25:43;;;;;;;6.65;2.10;;;16.50;99.90;;;;;;5039705;28;20045;-63
2022/07/29 06:28:09;;;;;;;6.70;1.83;;;16.50;99.90;;;;;;5031615;28;20041;-63
2022/07/29 06:30:35;;;;;;;6.32;1.75;;;16.60;99.90;;;;;;5031786;28;20085;-62
2022/07/29 06:33:01;;;;;;;5.90;2.15;;;16.60;99.90;;;;;;5031697;28;20505;-62
2022/07/29 06:35:27;;;;;;;6.45;1.90;;;16.70;99.90;;;;;;5031469;28;20057;-62
2022/07/29 06:37:53;;;;;;;9.02;1.98;;;16.80;99.90;;;;;;5043403;28;20726;-62
2022/07/29 06:43:03;;;;;;;4.95;1.65;;;16.80;99.90;;;;;;5070535;28;20045;-62
2022/07/29 06:45:29;;;;;;;7.15;2.20;;;16.90;99.90;;;;;;5070147;28;20037;-62
2022/07/29 06:47:54;;;;;;;6.93;2.13;;;17.00;99.90;;;;;;5071477;28;20106;-62
2022/07/29 06:50:21;;;;;;;5.20;1.50;;;17.10;99.90;;;;;;5071509;28;20044;-63
2022/07/29 06:52:47;;;;;;;7.97;2.10;;;17.10;99.90;;;;;;5071481;28;20036;-62
2022/07/29 06:55:14;;;;;;;6.45;1.77;;;17.20;99.90;;;;;;5071280;28;20123;-62
2022/07/29 06:57:39;;;;;;;7.15;2.13;;;17.30;99.90;;;;;;5070889;28;20107;-62
2022/07/29 07:00:06;;;;;;;7.97;2.17;;;17.30;99.90;;;;;;5070859;28;20552;-63
2022/07/29 07:02:32;;;;;;;7.00;1.90;;;17.30;99.90;;;;;;5069688;28;20051;-63
2022/07/29 07:04:58;;;;;;;6.68;1.92;;;17.30;99.90;;;;;;5071097;28;20119;-63
2022/07/29 07:07:24;;;;;;;9.98;2.20;;;17.30;99.90;;;;;;5070664;28;20047;-62
2022/07/29 07:09:50;;;;;;;8.65;2.03;;;17.30;99.90;;;;;;5070487;28;20591;-63
2022/07/29 07:12:16;;;;;;;6.82;1.95;;;17.40;99.90;;;;;;5070973;28;20043;-62
2022/07/29 07:14:41;;;;;;;8.43;2.88;;;17.40;99.90;;;;;;5070961;28;20044;-63
2022/07/29 07:17:07;;;;;;;5.07;1.60;;;17.40;99.90;;;;;;5070631;28;20055;-62
2022/07/29 07:19:33;;;;;;;4.63;1.70;;;17.40;99.90;;;;;;5067854;28;20037;-62
2022/07/29 07:21:59;;;;;;;8.07;1.77;;;17.50;99.90;;;;;;5051078;28;20041;-63
2022/07/29 07:24:25;;;;;;;13.35;2.25;;;17.50;99.90;;;;;;5050770;28;20741;-61
2022/07/29 07:26:51;;;;;;;6.50;1.88;;;17.60;99.90;;;;;;5050806;28;20033;-62
2022/07/29 07:29:16;;;;;;;7.38;2.20;;;17.60;99.90;;;;;;5050572;28;20473;-62
2022/07/29 07:31:42;;;;;;;6.57;2.03;;;17.60;99.90;;;;;;5065740;28;20049;-63
2022/07/29 07:34:08;;;;;;;7.50;2.05;;;17.60;99.90;;;;;;5050596;28;20060;-62
2022/07/29 07:36:34;;;;;;;6.68;1.90;;;17.70;99.90;;;;;;5049013;28;20041;-63
2022/07/29 07:38:59;;;;;;;5.45;2.00;;;17.70;99.90;;;;;;5041872;28;20125;-62
2022/07/29 07:41:25;;;;;;;7.85;2.08;;;17.80;99.90;;;;;;5033067;28;20033;-62
2022/07/29 07:43:51;;;;;;;7.35;2.00;;;17.90;99.90;;;;;;5028644;28;20037;-63
2022/07/29 07:46:16;;;;;;;6.65;1.98;;;17.90;99.90;;;;;;5042493;28;20033;-62
2022/07/29 07:48:42;;;;;;;7.68;1.90;;;17.90;99.90;;;;;;5051399;28;20095;-62
2022/07/29 07:51:08;;;;;;;6.53;2.35;;;17.90;99.90;;;;;;5051220;28;20435;-62
2022/07/29 07:53:34;;;;;;;6.55;2.15;;;18.00;99.90;;;;;;5051165;28;20408;-62
2022/07/29 07:56:00;;;;;;;6.38;1.80;;;18.00;99.90;;;;;;5052249;28;20040;-62
2022/07/29 07:58:25;;;;;;;5.60;1.90;;;18.00;99.90;;;;;;5052605;28;20107;-62
2022/07/29 08:00:51;;;;;;;5.90;1.90;;;18.10;99.90;;;;;;5054789;28;20044;-62
2022/07/29 08:03:17;;;;;;;9.23;2.50;;;18.00;99.90;;;;;;5054851;28;20071;-63
2022/07/29 08:05:43;;;;;;;10.00;2.10;;;18.00;99.90;;;;;;5054844;28;20087;-63
2022/07/29 08:08:08;;;;;;;8.82;2.80;;;18.10;99.90;;;;;;5053404;28;20714;-63
2022/07/29 08:10:52;;;;;;;6.43;1.90;;;18.20;99.90;;;;;;5054266;28;20083;-63
2022/07/29 08:13:21;;;;;;;8.02;2.05;;;18.10;99.90;;;;;;5054570;28;20409;-62
2022/07/29 08:15:46;;;;;;;7.25;2.22;;;18.20;99.90;;;;;;5054251;28;20084;-63
2022/07/29 08:18:13;;;;;;;6.90;2.42;;;18.20;99.90;;;;;;5054007;28;20076;-62
2022/07/29 08:20:39;;;;;;;6.63;2.00;;;18.20;99.90;;;;;;5054105;28;20049;-62
2022/07/29 08:23:08;;;;;;;7.18;2.20;;;18.20;99.90;;;;;;5054450;28;20051;-62
2022/07/29 08:25:36;;;;;;;6.28;2.22;;;18.20;99.90;;;;;;5054402;28;20041;-62
2022/07/29 08:28:01;;;;;;;9.57;2.20;;;18.20;99.90;;;;;;5054777;28;20041;-63
2022/07/29 08:30:27;;;;;;;6.28;2.00;;;18.30;99.90;;;;;;5054572;28;20379;-62
2022/07/29 08:32:53;;;;;;;9.23;2.53;;;18.30;99.90;;;;;;5054463;28;20072;-63
2022/07/29 08:35:20;;;;;;;11.75;2.78;;;18.30;99.90;;;;;;5052821;28;20478;-63
2022/07/29 08:37:46;;;;;;;6.10;2.22;;;18.40;99.90;;;;;;5059158;28;20067;-62
2022/07/29 08:40:12;;;;;;;11.18;2.90;;;18.40;99.90;;;;;;5074106;28;20426;-62
2022/07/29 08:42:37;;;;;;;10.07;2.55;;;18.50;99.90;;;;;;5073702;28;20488;-62
2022/07/29 08:45:04;;;;;;;6.13;2.28;;;18.60;99.90;;;;;;5074052;28;20036;-63
2022/07/29 08:47:30;;;;;;;6.57;2.20;;;18.60;99.90;;;;;;5073704;28;20500;-62
2022/07/29 08:49:56;;;;;;;9.38;2.42;;;18.60;99.90;;;;;;5073665;28;20041;-62
2022/07/29 08:52:25;;;;;;;5.70;2.58;;;18.60;99.90;;;;;;5073220;28;20066;-63
2022/07/29 08:54:52;;;;;;;9.65;2.83;;;18.60;99.90;;;;;;5073394;28;20626;-63
2022/07/29 08:57:19;;;;;;;8.20;2.83;;;18.70;99.90;;;;;;5073653;28;20499;-63
2022/07/29 08:59:47;;;;;;;7.53;2.70;;;18.70;99.90;;;;;;5072733;28;20045;-62
2022/07/29 09:02:19;;;;;;;7.03;2.58;;;18.80;99.90;;;;;;5073991;28;20044;-62
2022/07/29 09:04:45;;;;;;;;;;;18.90;99.90;;;;;;5074037;28;20033;-62
2022/07/29 09:07:15;;;;;;;9.50;2.42;;;18.90;99.90;;;;;;5072862;28;20007;-62
2022/07/29 09:09:42;;;;;;;8.38;2.45;;;19.00;99.90;;;;;;5073651;28;20040;-62
2022/07/29 09:12:11;;;;;;;7.32;2.70;;;18.90;99.90;;;;;;5073389;28;20397;-62
2022/07/29 09:14:37;;;;;;;5.60;2.22;;;19.00;99.90;;;;;;5072994;28;20040;-63
2022/07/29 09:17:03;;;;;;;8.70;2.50;;;19.00;99.90;;;;;;5073166;28;20119;-63
2022/07/29 09:19:31;;;;;;;10.50;2.20;;;19.00;99.90;;;;;;5071034;28;20044;-63
2022/07/29 09:21:59;;;;;;;6.80;2.80;;;19.00;99.90;;;;;;5053019;28;20233;-63
2022/07/29 09:24:44;;;;;;;7.80;2.53;;;19.00;99.90;;;;;;5051868;28;20392;-62
2022/07/29 09:27:21;;;;;;;8.18;2.53;;;19.10;99.90;;;;;;5052941;28;20037;-63
2022/07/29 09:29:47;;;;;;;7.78;2.60;;;19.10;99.90;;;;;;5052208;28;20080;-63
2022/07/29 09:32:13;;;;;;;7.00;2.70;;;19.10;99.90;;;;;;5052947;28;20497;-62
2022/07/29 09:34:39;;;;;;;7.97;2.50;;;19.10;99.90;;;;;;5052425;28;20075;-62
2022/07/29 09:37:05;;;;;;;6.63;2.25;;;19.20;99.90;;;;;;5052735;28;20462;-62
2022/07/29 09:39:46;;;;;;;6.90;2.70;;;19.20;99.90;;;;;;5072204;28;20059;-63
2022/07/29 09:42:13;;;;;;;7.63;2.75;;;19.30;99.90;;;;;;5072532;28;20107;-62
2022/07/29 09:44:48;;;;;;;7.80;2.92;;;19.30;99.90;;;;;;5072024;28;20036;-62
2022/07/29 09:47:14;;;;;;;8.38;2.45;;;19.40;99.90;;;;;;5072754;28;20055;-62
2022/07/29 09:49:59;;;;;;;8.50;2.50;;;19.50;99.90;;;;;;5073206;28;20048;-62
2022/07/29 09:52:30;;;;;;;6.85;2.58;;;19.50;99.90;;;;;;5033285;28;20071;-62
2022/07/29 09:55:09;;;;;;;6.80;2.95;;;19.60;99.90;;;;;;5033038;28;20045;-62
2022/07/29 09:57:35;;;;;;;9.57;2.85;;;19.60;99.90;;;;;;5033249;28;20383;-63
2022/07/29 10:00:07;;;;;;;8.93;2.63;;;19.70;99.90;;;;;;5031939;28;20038;-62
2022/07/29 10:02:35;;;;;;;10.75;3.00;;;19.80;99.90;;;;;;5033017;28;20482;-62
2022/07/29 10:05:04;;;;;;;10.57;3.45;;;19.90;99.90;;;;;;5032973;28;20394;-62
2022/07/29 10:08:03;;;;;;;7.55;3.10;;;19.70;99.90;;;;;;5032931;28;20041;-62
2022/07/29 10:10:34;;;;;;;8.07;2.67;;;19.90;99.90;;;;;;5031480;28;20508;-62
2022/07/29 10:13:11;;;;;;;9.98;3.20;;;19.90;99.90;;;;;;5033061;28;20128;-62
2022/07/29 10:15:44;;;;;;;6.97;2.75;;;20.00;99.90;;;;;;5032881;28;20037;-62
2022/07/29 10:18:11;;;;;;;7.68;2.58;;;19.80;99.90;;;;;;5032758;28;20542;-62
2022/07/29 10:20:37;;;;;;;9.00;2.90;;;19.80;99.90;;;;;;5044097;28;20125;-62
2022/07/29 10:23:04;;;;;;;7.72;2.70;;;19.80;99.90;;;;;;5052567;28;20033;-62
2022/07/29 10:25:30;;;;;;;6.18;2.42;;;19.90;99.90;;;;;;5052760;28;20044;-63
2022/07/29 10:27:56;;;;;;;9.13;2.53;;;19.90;99.90;;;;;;5052488;28;20049;-63
2022/07/29 10:30:23;;;;;;;6.82;2.50;;;19.90;99.90;;;;;;5052334;28;20040;-62
2022/07/29 10:33:07;;;;;;;6.97;2.47;;;20.00;99.90;;;;;;5052422;28;20116;-62
2022/07/29 10:36:12;;;;;;;10.77;3.60;;;20.10;99.90;;;;;;5052489;28;20094;-62
2022/07/29 10:38:44;;;;;;;7.70;2.90;;;20.10;99.90;;;;;;5064556;28;20083;-63
2022/07/29 10:41:27;;;;;;;9.32;2.97;;;20.20;99.90;;;;;;5072554;28;20045;-62
2022/07/29 10:44:00;;;;;;;9.48;2.85;;;20.20;99.90;;;;;;5072427;28;20127;-63
2022/07/29 10:46:26;;;;;;;7.38;2.80;;;20.30;99.90;;;;;;5072160;28;20079;-63
2022/07/29 10:49:18;;;;;;;8.18;2.90;;;20.40;99.90;;;;;;5070993;28;20075;-62
2022/07/29 10:52:04;;;;;;;8.00;3.50;;;20.40;99.90;;;;;;5070973;28;20071;-63
2022/07/29 10:54:41;;;;;;;8.27;3.55;;;20.40;99.90;;;;;;5072088;28;20036;-62
2022/07/29 10:57:27;;;;;;;8.25;4.00;;;20.20;99.90;;;;;;5072279;28;20075;-62
2022/07/29 11:00:04;;;;;;;7.63;3.10;;;20.30;99.90;;;;;;5070521;28;20131;-63
2022/07/29 11:02:55;;;;;;;7.28;2.60;;;20.40;99.90;;;;;;5071300;28;20040;-62
2022/07/29 11:05:19;;;;;;;8.35;2.67;;;20.30;99.90;;;;;;5071816;28;20037;-62
2022/07/29 11:08:09;;;;;;;9.98;3.13;;;20.30;99.90;;;;;;5071959;28;20036;-62
2022/07/29 11:10:35;;;;;;;7.57;2.65;;;20.50;99.90;;;;;;5072008;28;20477;-63
2022/07/29 11:13:00;;;;;;;12.88;4.07;;;20.50;99.90;;;;;;5072179;28;20043;-62
2022/07/29 11:15:26;;;;;;;8.45;3.13;;;20.50;99.90;;;;;;5072084;28;20039;-63
2022/07/29 11:17:52;;;;;;;7.15;2.70;;;20.60;99.90;;;;;;5063276;28;20048;-62
2022/07/29 11:20:39;;;;;;;10.98;2.88;;;20.70;99.90;;;;;;5042527;28;20033;-62
2022/07/29 11:23:17;;;;;;;7.25;2.75;;;20.90;99.90;;;;;;5042445;28;20036;-63
2022/07/29 11:25:43;;;;;;;10.27;2.92;;;21.00;99.90;;;;;;5042636;28;20062;-62
2022/07/29 11:28:20;;;;;;;6.38;2.60;;;21.10;99.90;;;;;;5042228;28;20247;-62
2022/07/29 11:30:52;;;;;;;6.93;2.40;;;21.10;99.90;;;;;;5043570;28;20064;-63
2022/07/29 11:33:28;;;;;;;6.35;2.53;;;21.20;99.90;;;;;;5052963;28;20041;-62
2022/07/29 11:36:10;;;;;;;7.53;2.70;;;21.20;99.90;;;;;;5055834;28;20060;-62
2022/07/29 11:38:36;;;;;;;7.80;3.30;;;21.20;99.90;;;;;;5067420;28;20078;-63
2022/07/29 11:41:21;;;;;;;7.72;2.88;;;21.20;99.90;;;;;;5075650;28;20075;-63
2022/07/29 11:43:52;;;;;;;7.95;3.00;;;21.20;99.90;;;;;;5075648;28;20106;-62
2022/07/29 11:46:48;;;;;;;9.25;2.92;;;21.20;99.90;;;;;;5075568;28;20045;-62
2022/07/29 11:49:19;;;;;;;8.25;2.85;;;21.30;99.90;;;;;;5075504;28;20453;-62
2022/07/29 11:51:51;;;;;;;10.15;2.92;;;21.30;99.90;;;;;;5075464;28;20072;-64
2022/07/29 11:54:23;;;;;;;10.27;3.88;;;21.40;99.90;;;;;;5074221;28;20051;-63
2022/07/29 11:56:49;;;;;;;6.55;2.72;;;21.40;99.90;;;;;;5075342;28;20052;-63
2022/07/29 11:59:16;;;;;;;8.30;2.88;;;21.40;99.90;;;;;;5075093;28;20094;-62
2022/07/29 12:01:58;;;;;;;10.43;3.50;;;21.50;99.90;;;;;;5075232;28;20051;-62
2022/07/29 12:04:24;;;;;;;8.20;2.90;;;21.50;99.90;;;;;;5075283;28;20048;-62
2022/07/29 12:06:51;;;;;;;7.28;3.22;;;21.60;99.90;;;;;;5074693;28;20447;-63
2022/07/29 12:09:18;;;;;;;8.38;3.05;;;21.70;99.90;;;;;;5072482;28;20481;-63
2022/07/29 12:11:44;;;;;;;8.57;3.35;;;21.70;99.90;;;;;;5073424;28;20049;-62
2022/07/29 12:14:27;;;;;;;7.40;3.28;;;21.70;99.90;;;;;;5073754;28;20084;-62
2022/07/29 12:16:53;;;;;;;9.18;3.42;;;21.70;99.90;;;;;;5074537;28;20040;-62
2022/07/29 12:19:19;;;;;;;8.35;3.78;;;21.70;99.90;;;;;;5073517;28;20056;-62
2022/07/29 12:21:50;;;;;;;8.50;3.42;;;21.70;99.90;;;;;;5053672;28;20037;-62
2022/07/29 12:24:16;;;;;;;7.80;3.43;;;21.80;99.90;;;;;;5061232;28;20051;-62
2022/07/29 12:26:52;;;;;;;8.98;3.60;;;22.00;99.90;;;;;;5067279;28;20040;-62
2022/07/29 12:29:18;;;;;;;10.32;3.95;;;22.10;99.90;;;;;;5073886;28;20036;-61
2022/07/29 12:31:46;;;;;;;9.05;3.40;;;22.30;99.90;;;;;;5074131;28;20041;-62
2022/07/29 12:34:13;;;;;;;10.10;3.80;;;22.30;99.90;;;;;;5073731;28;20109;-62
2022/07/29 12:36:40;;;;;;;10.60;4.10;;;22.40;99.90;;;;;;5073614;28;20059;-62
2022/07/29 12:39:06;;;;;;;7.95;4.00;;;22.40;99.90;;;;;;5062090;28;20030;-61
2022/07/29 12:41:32;;;;;;;9.77;3.25;;;22.40;99.90;;;;;;5041242;28;20052;-62
2022/07/29 12:43:57;;;;;;;9.48;3.35;;;22.50;99.90;;;;;;5032917;28;20405;-62
2022/07/29 12:46:23;;;;;;;8.93;3.15;;;22.30;99.90;;;;;;5032982;28;20037;-62
2022/07/29 12:48:57;;;;;;;9.60;3.22;;;22.50;99.90;;;;;;5032974;28;20103;-62
2022/07/29 12:51:31;;;;;;;7.68;3.00;;;22.60;99.90;;;;;;5033560;28;20045;-62
2022/07/29 12:54:10;;;;;;;6.97;2.80;;;22.80;99.90;;;;;;5039515;28;20034;-62
2022/07/29 12:56:45;;;;;;;8.75;2.50;;;23.00;99.90;;;;;;5044224;28;20077;-62
2022/07/29 12:59:19;;;;;;;7.18;1.90;;;23.10;99.90;;;;;;5058739;28;20046;-62